createdAt,value
2023-02-18T00:01:43.625Z,59.35
2023-02-18T00:04:11.997Z,59.16
2023-02-18T00:06:44.651Z,59.22
2023-02-18T00:09:13.070Z,58.96
2023-02-18T00:11:41.345Z,59.78
2023-02-18T00:14:13.079Z,60.00
2023-02-18T00:16:41.867Z,58.88
2023-02-18T00:19:13.800Z,58.99
2023-02-18T00:21:42.296Z,59.79
2023-02-18T00:24:15.412Z,59.36
2023-02-18T00:26:44.159Z,60.98
2023-02-18T00:29:12.631Z,60.30
2023-02-18T00:31:42.447Z,59.87
2023-02-18T00:34:12.840Z,59.71
2023-02-18T00:36:41.534Z,59.44
2023-02-18T00:39:12.776Z,60.00
2023-02-18T00:41:41.443Z,60.22
2023-02-18T00:44:10.278Z,59.98
2023-02-18T00:46:39.005Z,60.25
2023-02-18T00:49:08.092Z,60.10
2023-02-18T00:51:36.647Z,59.78
2023-02-18T00:54:05.067Z,59.88
2023-02-18T00:56:35.120Z,60.31
2023-02-18T00:59:03.507Z,60.54
2023-02-18T01:01:31.960Z,62.24
2023-02-18T01:04:00.272Z,61.08
2023-02-18T01:06:28.540Z,61.28
2023-02-18T01:08:57.010Z,61.70
2023-02-18T01:11:25.357Z,61.31
2023-02-18T01:13:55.208Z,61.39
2023-02-18T01:16:24.310Z,63.47
2023-02-18T01:18:52.809Z,66.00
2023-02-18T01:21:21.077Z,66.62
2023-02-18T01:23:49.387Z,65.89
2023-02-18T01:26:17.946Z,64.70
2023-02-18T01:28:46.323Z,64.90
2023-02-18T01:31:16.498Z,64.87
2023-02-18T01:33:45.339Z,64.86
2023-02-18T01:36:13.997Z,64.69
2023-02-18T01:38:42.582Z,63.69
2023-02-18T01:41:11.038Z,64.33
2023-02-18T01:43:40.085Z,64.01
2023-02-18T01:46:21.671Z,63.54
2023-02-18T01:48:55.025Z,63.83
2023-02-18T01:51:29.174Z,64.04
2023-02-18T01:54:00.629Z,63.28
2023-02-18T01:56:33.705Z,62.96
2023-02-18T01:59:04.600Z,62.65
2023-02-18T02:01:35.232Z,63.19
2023-02-18T02:04:04.110Z,63.38
2023-02-18T02:06:32.784Z,63.83
2023-02-18T02:09:05.269Z,63.19
2023-02-18T02:11:50.086Z,63.59
2023-02-18T02:14:31.970Z,64.68
2023-02-18T02:17:05.799Z,64.91
2023-02-18T02:20:12.479Z,63.99
2023-02-18T02:23:14.557Z,63.81
2023-02-18T02:26:02.714Z,63.54
2023-02-18T02:29:06.065Z,63.71
2023-02-18T02:32:11.046Z,63.92
2023-02-18T02:34:54.280Z,63.74
2023-02-18T02:37:35.256Z,63.73
2023-02-18T02:40:16.027Z,63.84
2023-02-18T02:42:52.281Z,63.83
2023-02-18T02:45:27.212Z,63.97
2023-02-18T02:48:06.497Z,63.64
2023-02-18T02:50:41.950Z,63.91
2023-02-18T02:53:16.045Z,64.64
2023-02-18T02:55:44.717Z,64.07
2023-02-18T02:58:16.977Z,63.75
2023-02-18T03:01:04.914Z,63.80
2023-02-18T03:04:06.108Z,63.97
2023-02-18T03:06:56.395Z,63.68
2023-02-18T03:09:35.302Z,63.64
2023-02-18T03:12:09.864Z,64.51
2023-02-18T03:14:46.036Z,64.03
2023-02-18T03:17:24.111Z,64.24
2023-02-18T03:19:59.077Z,64.13
2023-02-18T03:22:32.397Z,64.11
2023-02-18T03:25:01.894Z,64.28
2023-02-18T03:27:33.537Z,64.79
2023-02-18T03:30:05.248Z,64.93
2023-02-18T03:32:35.732Z,65.28
2023-02-18T03:35:09.647Z,64.79
2023-02-18T03:37:43.919Z,65.04
2023-02-18T03:40:13.421Z,64.42
2023-02-18T03:42:41.876Z,64.20
2023-02-18T03:45:10.278Z,64.49
2023-02-18T03:47:39.202Z,64.33
2023-02-18T03:50:09.168Z,64.63
2023-02-18T03:52:38.888Z,64.45
2023-02-18T03:55:09.449Z,64.29
2023-02-18T03:57:37.749Z,64.34
2023-02-18T04:00:08.436Z,64.64
2023-02-18T04:02:36.748Z,66.22
2023-02-18T04:05:05.260Z,66.63
2023-02-18T04:07:33.596Z,68.06
2023-02-18T04:10:03.361Z,68.25
2023-02-18T04:12:31.857Z,70.05
2023-02-18T04:15:00.093Z,72.46
2023-02-18T04:17:28.356Z,75.04
2023-02-18T04:19:56.662Z,76.67
2023-02-18T04:22:24.940Z,76.52
2023-02-18T04:24:53.310Z,77.15
2023-02-18T04:27:23.016Z,78.68
2023-02-18T04:29:51.490Z,76.31
2023-02-18T04:32:19.886Z,77.02
2023-02-18T04:34:48.140Z,76.85
2023-02-18T04:37:16.640Z,74.15
2023-02-18T04:39:45.028Z,71.90
2023-02-18T04:42:14.061Z,70.48
2023-02-18T04:44:44.732Z,70.68
2023-02-18T04:47:14.684Z,72.85
2023-02-18T04:49:43.112Z,71.98
2023-02-18T04:52:11.373Z,72.02
2023-02-18T04:54:39.684Z,70.96
2023-02-18T04:57:08.133Z,70.27
2023-02-18T04:59:36.522Z,68.84
2023-02-18T05:02:06.377Z,68.82
2023-02-18T05:04:34.608Z,68.51
2023-02-18T05:07:03.029Z,72.67
2023-02-18T05:09:31.307Z,68.12
2023-02-18T05:11:59.547Z,67.44
2023-02-18T05:14:27.980Z,65.57
2023-02-18T05:16:56.306Z,67.33
2023-02-18T05:19:26.097Z,65.42
2023-02-18T05:21:54.380Z,65.91
2023-02-18T05:24:23.141Z,66.55
2023-02-18T05:26:51.711Z,66.39
2023-02-18T05:29:19.989Z,65.98
2023-02-18T05:31:48.400Z,66.93
2023-02-18T05:34:16.759Z,67.99
2023-02-18T05:36:46.505Z,67.25
2023-02-18T05:39:14.817Z,68.05
2023-02-18T05:41:43.192Z,68.51
2023-02-18T05:44:28.796Z,67.90
2023-02-18T05:46:57.205Z,66.07
2023-02-18T05:49:28.500Z,66.02
2023-02-18T05:51:58.617Z,64.94
2023-02-18T05:54:27.578Z,64.77
2023-02-18T05:56:56.577Z,64.77
2023-02-18T05:59:25.516Z,64.43
2023-02-18T06:01:56.918Z,63.84
2023-02-18T06:04:25.192Z,63.86
2023-02-18T06:06:53.664Z,64.77
2023-02-18T06:09:24.479Z,65.63
2023-02-18T06:11:52.972Z,66.78
2023-02-18T06:14:21.247Z,66.94
2023-02-18T06:16:49.699Z,66.74
2023-02-18T06:19:18.180Z,65.92
2023-02-18T06:21:46.528Z,65.12
2023-02-18T06:24:14.991Z,64.81
2023-02-18T06:26:44.642Z,64.25
2023-02-18T06:29:12.922Z,65.12
2023-02-18T06:31:41.374Z,63.16
2023-02-18T06:34:09.675Z,63.34
2023-02-18T06:36:37.970Z,62.92
2023-02-18T06:39:07.970Z,62.22
2023-02-18T06:41:36.349Z,61.64
2023-02-18T06:44:06.371Z,61.63
2023-02-18T06:46:34.834Z,61.91
2023-02-18T06:49:03.246Z,61.89
2023-02-18T06:51:31.601Z,61.96
2023-02-18T06:54:00.098Z,61.33
2023-02-18T06:56:30.689Z,60.66
2023-02-18T06:58:59.278Z,59.63
2023-02-18T07:01:29.086Z,58.11
2023-02-18T07:03:57.471Z,57.73
2023-02-18T07:06:25.841Z,57.50
2023-02-18T07:08:54.211Z,56.51
2023-02-18T07:11:22.469Z,56.16
2023-02-18T07:13:50.689Z,55.73
2023-02-18T07:16:19.145Z,54.82
2023-02-18T07:18:48.935Z,55.43
2023-02-18T07:21:17.175Z,55.77
2023-02-18T07:23:45.550Z,56.45
2023-02-18T07:26:15.825Z,56.68
2023-02-18T07:28:44.089Z,56.92
2023-02-18T07:31:12.565Z,56.27
2023-02-18T07:33:40.919Z,55.94
2023-02-18T07:36:11.518Z,54.17
2023-02-18T07:38:43.081Z,51.94
2023-02-18T07:41:18.504Z,49.87
2023-02-18T07:43:46.938Z,48.85
2023-02-18T07:46:15.447Z,50.73
2023-02-18T07:48:43.952Z,49.88
2023-02-18T07:51:14.130Z,50.60
2023-02-18T07:53:42.637Z,51.49
2023-02-18T07:56:11.012Z,52.23
2023-02-18T07:58:40.882Z,50.18
2023-02-18T08:01:11.189Z,50.27
2023-02-18T08:03:40.133Z,49.92
2023-02-18T08:06:09.698Z,50.13
2023-02-18T08:08:39.673Z,51.26
2023-02-18T08:11:18.656Z,50.78
2023-02-18T08:13:47.729Z,49.62
2023-02-18T08:16:16.423Z,49.50
2023-02-18T08:18:45.159Z,47.97
2023-02-18T08:21:13.484Z,46.59
2023-02-18T08:23:43.153Z,45.37
2023-02-18T08:26:11.937Z,44.91
2023-02-18T08:28:40.274Z,43.85
2023-02-18T08:31:09.225Z,42.80
2023-02-18T08:33:37.640Z,42.50
2023-02-18T08:36:10.810Z,41.59
2023-02-18T08:38:39.189Z,39.41
2023-02-18T08:41:10.572Z,39.36
2023-02-18T08:43:39.306Z,39.55
2023-02-18T08:46:07.981Z,39.53
2023-02-18T08:48:44.465Z,39.91
2023-02-18T08:51:15.156Z,41.06
2023-02-18T08:53:43.663Z,42.22
2023-02-18T08:56:13.487Z,41.77
2023-02-18T08:58:42.457Z,43.14
2023-02-18T09:01:13.301Z,42.83
2023-02-18T09:03:42.127Z,42.32
2023-02-18T09:06:10.593Z,42.39
2023-02-18T09:08:38.912Z,43.80
2023-02-18T09:11:08.360Z,42.89
2023-02-18T09:13:38.574Z,44.23
2023-02-18T09:16:09.542Z,44.71
2023-02-18T09:18:37.980Z,43.68
2023-02-18T09:21:09.773Z,43.04
2023-02-18T09:23:38.830Z,43.70
2023-02-18T09:26:08.288Z,41.88
2023-02-18T09:28:38.730Z,42.44
2023-02-18T09:31:08.817Z,42.17
2023-02-18T09:33:38.419Z,42.40
2023-02-18T09:36:07.712Z,42.06
2023-02-18T09:38:36.736Z,40.96
2023-02-18T09:41:09.834Z,40.90
2023-02-18T09:43:44.048Z,39.83
2023-02-18T09:46:21.268Z,40.07
2023-02-18T09:48:50.383Z,41.15
2023-02-18T09:51:18.975Z,40.83
2023-02-18T09:53:47.920Z,40.12
2023-02-18T09:56:18.939Z,38.86
2023-02-18T09:58:49.635Z,36.91
2023-02-18T10:01:26.577Z,36.33
2023-02-18T10:03:55.853Z,36.96
2023-02-18T10:06:27.526Z,43.50
2023-02-18T10:08:59.129Z,37.12
2023-02-18T10:11:31.887Z,31.80
2023-02-18T10:14:04.311Z,33.12
2023-02-18T10:16:32.861Z,32.56
2023-02-18T10:19:05.382Z,33.99
2023-02-18T10:21:36.280Z,35.41
2023-02-18T10:24:10.427Z,34.94
2023-02-18T10:26:40.648Z,33.56
2023-02-18T10:29:21.398Z,32.03
2023-02-18T10:31:56.675Z,30.89
2023-02-18T10:34:39.011Z,30.70
2023-02-18T10:37:19.796Z,30.94
2023-02-18T10:40:01.360Z,29.73
2023-02-18T10:42:38.757Z,28.89
2023-02-18T10:45:19.812Z,29.38
2023-02-18T10:48:00.581Z,27.77
2023-02-18T10:50:34.945Z,27.13
2023-02-18T10:53:10.005Z,26.71
2023-02-18T10:55:40.907Z,28.08
2023-02-18T10:58:28.783Z,25.82
2023-02-18T11:00:59.020Z,26.78
2023-02-18T11:03:28.441Z,27.48
2023-02-18T11:05:58.198Z,27.03
2023-02-18T11:08:29.391Z,27.99
2023-02-18T11:10:58.635Z,27.85
2023-02-18T11:13:29.614Z,29.13
2023-02-18T11:16:03.939Z,29.91
2023-02-18T11:18:39.198Z,29.54
2023-02-18T11:21:21.567Z,29.27
2023-02-18T11:23:51.712Z,28.32
2023-02-18T11:26:25.883Z,28.23
2023-02-18T11:29:01.398Z,27.51
2023-02-18T11:31:46.547Z,27.32
2023-02-18T11:34:19.765Z,26.21
2023-02-18T11:36:49.759Z,26.23
2023-02-18T11:39:22.649Z,25.96
2023-02-18T11:41:56.606Z,25.94
2023-02-18T11:44:29.698Z,24.53
2023-02-18T11:47:03.131Z,23.94
2023-02-18T11:49:34.120Z,24.34
2023-02-18T11:52:20.776Z,24.70
2023-02-18T11:55:03.082Z,25.15
2023-02-18T11:57:32.026Z,24.60
2023-02-18T12:00:01.453Z,24.90
2023-02-18T12:02:37.530Z,25.38
2023-02-18T12:05:13.067Z,24.25
2023-02-18T12:07:46.124Z,24.02
2023-02-18T12:10:16.452Z,24.24
2023-02-18T12:12:49.601Z,23.80
2023-02-18T12:15:23.491Z,24.50
2023-02-18T12:18:18.635Z,24.83
2023-02-18T12:21:25.123Z,25.02
2023-02-18T12:24:04.451Z,25.93
2023-02-18T12:26:43.370Z,26.50
2023-02-18T12:29:36.136Z,26.81
2023-02-18T12:32:17.671Z,26.86
2023-02-18T12:35:01.904Z,26.69
2023-02-18T12:37:51.708Z,26.85
2023-02-18T12:40:36.550Z,27.36
2023-02-18T12:43:15.617Z,27.37
2023-02-18T12:45:59.293Z,27.31
2023-02-18T12:48:55.400Z,26.33
2023-02-18T12:51:41.833Z,27.05
2023-02-18T12:54:28.065Z,27.98
2023-02-18T12:57:23.716Z,27.09
2023-02-18T13:00:29.945Z,27.26
2023-02-18T13:03:29.015Z,27.16
2023-02-18T13:06:04.813Z,26.98
2023-02-18T13:08:48.446Z,26.32
2023-02-18T13:11:38.524Z,25.91
2023-02-18T13:14:13.353Z,25.86
2023-02-18T13:16:44.987Z,25.60
2023-02-18T13:19:21.689Z,25.65
2023-02-18T13:21:52.102Z,25.69
2023-02-18T13:24:33.111Z,26.01
2023-02-18T13:27:15.387Z,25.25
2023-02-18T13:29:50.491Z,25.57
2023-02-18T13:32:25.426Z,25.12
2023-02-18T13:34:59.359Z,24.60
2023-02-18T13:37:36.989Z,24.40
2023-02-18T13:40:18.447Z,23.34
2023-02-18T13:42:46.970Z,24.55
2023-02-18T13:45:33.940Z,24.79
2023-02-18T13:48:02.851Z,24.21
2023-02-18T13:50:34.136Z,25.60
2023-02-18T13:53:20.126Z,23.85
2023-02-18T13:55:55.318Z,24.27
2023-02-18T13:58:27.110Z,23.84
2023-02-18T14:01:00.618Z,23.47
2023-02-18T14:03:51.100Z,22.80
2023-02-18T14:06:23.228Z,22.82
2023-02-18T14:08:52.413Z,22.61
2023-02-18T14:11:47.484Z,23.53
2023-02-18T14:14:32.197Z,23.34
2023-02-18T14:17:36.126Z,23.52
2023-02-18T14:20:34.585Z,23.94
2023-02-18T14:23:03.203Z,22.90
2023-02-18T14:25:41.927Z,23.51
2023-02-18T14:28:45.025Z,23.43
2023-02-18T14:31:30.618Z,23.46
2023-02-18T14:34:37.618Z,23.86
2023-02-18T14:37:42.643Z,23.27
2023-02-18T14:40:43.602Z,24.12
2023-02-18T14:43:25.488Z,23.78
2023-02-18T14:46:10.852Z,23.37
2023-02-18T14:49:00.893Z,23.84
2023-02-18T14:51:32.923Z,23.71
2023-02-18T14:54:07.433Z,24.53
2023-02-18T14:56:40.883Z,24.48
2023-02-18T14:59:09.815Z,26.11
2023-02-18T15:01:40.455Z,26.52
2023-02-18T15:04:08.868Z,26.38
2023-02-18T15:06:39.931Z,27.55
2023-02-18T15:09:16.253Z,28.66
2023-02-18T15:11:48.252Z,28.45
2023-02-18T15:14:20.115Z,28.83
2023-02-18T15:16:50.919Z,29.75
2023-02-18T15:19:23.913Z,30.14
2023-02-18T15:21:54.709Z,30.99
2023-02-18T15:24:28.919Z,31.63
2023-02-18T15:27:03.187Z,32.61
2023-02-18T15:29:35.155Z,32.32
2023-02-18T15:32:17.842Z,32.70
2023-02-18T15:34:47.658Z,32.58
2023-02-18T15:37:16.881Z,33.97
2023-02-18T15:39:45.730Z,32.84
2023-02-18T15:42:20.803Z,34.31
2023-02-18T15:44:53.447Z,33.84
2023-02-18T15:47:24.335Z,33.63
2023-02-18T15:49:55.663Z,35.39
2023-02-18T15:52:29.631Z,34.13
2023-02-18T15:55:03.184Z,34.42
2023-02-18T15:57:32.217Z,34.94
2023-02-18T16:00:15.694Z,34.43
2023-02-18T16:03:05.464Z,34.22
2023-02-18T16:05:39.104Z,34.55
2023-02-18T16:08:14.443Z,36.04
2023-02-18T16:10:56.077Z,35.81
2023-02-18T16:13:26.864Z,35.63
2023-02-18T16:15:55.533Z,35.99
2023-02-18T16:18:30.236Z,36.32
2023-02-18T16:21:01.651Z,36.59
2023-02-18T16:23:42.491Z,37.14
2023-02-18T16:26:28.290Z,36.66
2023-02-18T16:29:02.099Z,37.30
2023-02-18T16:31:30.583Z,37.64
2023-02-18T16:34:00.262Z,38.62
2023-02-18T16:36:28.912Z,38.45
2023-02-18T16:38:58.801Z,39.34
2023-02-18T16:41:27.283Z,39.65
2023-02-18T16:43:55.709Z,40.10
2023-02-18T16:46:25.565Z,40.68
2023-02-18T16:48:56.778Z,41.78
2023-02-18T16:51:31.678Z,42.29
2023-02-18T16:54:00.357Z,41.65
2023-02-18T16:56:32.461Z,41.29
2023-02-18T16:59:01.063Z,40.76
2023-02-18T17:01:32.255Z,40.38
2023-02-18T17:04:02.210Z,40.64
2023-02-18T17:06:32.061Z,40.38
2023-02-18T17:09:00.804Z,40.81
2023-02-18T17:11:32.769Z,41.50
2023-02-18T17:14:05.057Z,43.50
2023-02-18T17:16:33.791Z,43.97
2023-02-18T17:19:02.036Z,43.78
2023-02-18T17:21:31.751Z,42.48
2023-02-18T17:24:00.152Z,43.03
2023-02-18T17:26:30.360Z,43.30
2023-02-18T17:29:00.618Z,43.61
2023-02-18T17:31:31.919Z,43.18
2023-02-18T17:34:03.273Z,43.44
2023-02-18T17:36:33.199Z,44.16
2023-02-18T17:39:02.923Z,42.21
2023-02-18T17:41:31.357Z,42.58
2023-02-18T17:43:59.707Z,43.03
2023-02-18T17:46:27.989Z,42.20
2023-02-18T17:48:56.259Z,42.69
2023-02-18T17:51:25.957Z,43.60
2023-02-18T17:53:55.770Z,43.14
2023-02-18T17:56:24.347Z,43.97
2023-02-18T17:58:52.614Z,43.03
2023-02-18T18:01:23.540Z,43.50
2023-02-18T18:03:51.963Z,44.75
2023-02-18T18:06:22.236Z,43.27
2023-02-18T18:08:50.555Z,45.00
2023-02-18T18:11:22.764Z,46.63
2023-02-18T18:13:53.031Z,45.99
2023-02-18T18:16:22.079Z,45.81
2023-02-18T18:18:50.500Z,45.41
2023-02-18T18:21:23.198Z,44.88
2023-02-18T18:23:52.086Z,46.08
2023-02-18T18:26:21.756Z,44.63
2023-02-18T18:28:50.177Z,45.89
2023-02-18T18:31:20.217Z,44.39
2023-02-18T18:33:50.629Z,44.19
2023-02-18T18:36:20.229Z,44.63
2023-02-18T18:38:48.965Z,44.87
2023-02-18T18:41:19.592Z,44.70
2023-02-18T18:43:49.859Z,45.73
2023-02-18T18:46:18.838Z,45.38
2023-02-18T18:48:47.362Z,45.20
2023-02-18T18:51:17.269Z,45.67
2023-02-18T18:53:45.720Z,46.15
2023-02-18T18:56:17.928Z,45.73
2023-02-18T18:58:47.140Z,46.36
2023-02-18T19:01:18.561Z,46.15
2023-02-18T19:03:47.647Z,47.99
2023-02-18T19:06:18.047Z,47.38
2023-02-18T19:08:48.036Z,47.02
2023-02-18T19:11:17.890Z,48.30
2023-02-18T19:13:46.463Z,49.57
2023-02-18T19:16:20.646Z,48.57
2023-02-18T19:18:49.062Z,48.39
2023-02-18T19:21:17.976Z,47.54
2023-02-18T19:23:46.261Z,47.03
2023-02-18T19:26:16.514Z,47.69
2023-02-18T19:28:44.828Z,47.29
2023-02-18T19:31:13.791Z,47.09
2023-02-18T19:33:47.040Z,49.51
2023-02-18T19:36:16.885Z,49.03
2023-02-18T19:38:45.625Z,48.62
2023-02-18T19:41:15.543Z,47.59
2023-02-18T19:43:46.699Z,47.75
2023-02-18T19:46:16.745Z,47.67
2023-02-18T19:48:50.748Z,47.52
2023-02-18T19:51:19.169Z,48.80
2023-02-18T19:53:47.408Z,50.05
2023-02-18T19:56:15.727Z,50.13
2023-02-18T19:58:44.168Z,50.33
2023-02-18T20:01:13.340Z,50.16
2023-02-18T20:03:41.691Z,49.24
2023-02-18T20:06:17.566Z,48.89
2023-02-18T20:08:45.995Z,49.25
2023-02-18T20:11:14.441Z,49.35
2023-02-18T20:13:42.862Z,49.90
2023-02-18T20:16:11.901Z,49.92
2023-02-18T20:18:40.240Z,51.61
2023-02-18T20:21:12.151Z,51.38
2023-02-18T20:23:42.161Z,50.30
2023-02-18T20:26:11.304Z,50.30
2023-02-18T20:28:39.664Z,50.68
2023-02-18T20:31:10.099Z,50.27
2023-02-18T20:33:38.916Z,49.81
2023-02-18T20:36:08.702Z,49.84
2023-02-18T20:38:37.558Z,49.60
2023-02-18T20:41:08.752Z,49.79
2023-02-18T20:43:37.201Z,49.13
2023-02-18T20:46:07.404Z,49.72
2023-02-18T20:48:36.313Z,49.16
2023-02-18T20:51:05.681Z,50.44
2023-02-18T20:53:34.301Z,49.28
2023-02-18T20:56:02.817Z,50.12
2023-02-18T20:58:33.055Z,52.27
2023-02-18T21:01:03.618Z,51.58
2023-02-18T21:03:32.858Z,52.63
2023-02-18T21:06:03.142Z,53.45
2023-02-18T21:08:31.808Z,52.56
2023-02-18T21:11:04.426Z,50.73
2023-02-18T21:13:34.834Z,52.69
2023-02-18T21:16:04.296Z,52.79
2023-02-18T21:18:32.865Z,51.15
2023-02-18T21:21:03.457Z,52.32
2023-02-18T21:23:32.019Z,51.55
2023-02-18T21:26:04.646Z,51.13
2023-02-18T21:28:34.983Z,51.12
2023-02-18T21:31:04.077Z,51.28
2023-02-18T21:33:32.609Z,50.76
2023-02-18T21:36:03.158Z,50.74
2023-02-18T21:38:31.402Z,51.44
2023-02-18T21:40:59.635Z,51.38
2023-02-18T21:43:27.858Z,51.42
2023-02-18T21:46:07.281Z,53.61
2023-02-18T21:48:52.653Z,53.18
2023-02-18T21:51:41.654Z,53.25
2023-02-18T21:54:10.018Z,52.42
2023-02-18T21:56:38.501Z,53.39
2023-02-18T21:59:06.793Z,53.03
2023-02-18T22:01:36.533Z,54.38
2023-02-18T22:04:05.085Z,54.75
2023-02-18T22:06:33.428Z,53.22
2023-02-18T22:09:02.525Z,52.35
2023-02-18T22:11:31.410Z,52.29
2023-02-18T22:13:59.843Z,52.32
2023-02-18T22:16:28.849Z,52.19
2023-02-18T22:18:59.058Z,52.95
2023-02-18T22:21:27.841Z,53.43
2023-02-18T22:23:56.310Z,54.89
2023-02-18T22:26:24.697Z,53.93
2023-02-18T22:28:54.519Z,53.80
2023-02-18T22:31:23.779Z,54.20
2023-02-18T22:33:53.956Z,54.69
2023-02-18T22:36:25.177Z,55.72
2023-02-18T22:38:54.132Z,54.62
2023-02-18T22:41:24.326Z,53.31
2023-02-18T22:43:55.274Z,53.53
2023-02-18T22:46:24.004Z,53.79
2023-02-18T22:48:52.744Z,53.75
2023-02-18T22:51:25.599Z,53.30
2023-02-18T22:53:55.724Z,53.24
2023-02-18T22:56:25.774Z,53.07
2023-02-18T22:58:56.110Z,53.05
2023-02-18T23:01:26.235Z,52.66
2023-02-18T23:03:55.023Z,53.40
2023-02-18T23:06:25.189Z,53.85
2023-02-18T23:08:55.623Z,53.36
2023-02-18T23:11:24.198Z,53.19
2023-02-18T23:14:06.623Z,55.65
2023-02-18T23:16:55.775Z,56.94
2023-02-18T23:19:24.850Z,56.91
2023-02-18T23:21:54.478Z,56.24
2023-02-18T23:24:23.356Z,56.49
2023-02-18T23:26:51.832Z,54.66
2023-02-18T23:29:20.136Z,55.45
2023-02-18T23:31:48.484Z,55.15
2023-02-18T23:34:18.444Z,57.15
2023-02-18T23:36:47.564Z,55.59
2023-02-18T23:39:21.008Z,54.99
2023-02-18T23:41:50.104Z,56.71
2023-02-18T23:44:21.366Z,54.92
2023-02-18T23:46:49.803Z,56.31
2023-02-18T23:49:19.619Z,57.39
2023-02-18T23:51:47.874Z,57.79
2023-02-18T23:54:16.156Z,59.17
2023-02-18T23:56:46.168Z,57.52
2023-02-18T23:59:14.561Z,57.84
